Terminal Aerodrome Forecast
Issued by NWS

Home | Current Version | Previous Version | Text Only | Print | Product List | Glossary On
Versions: 1 2 3 4 5 6 7 8 9 10 11 12 13 14 15 16 17 18 19 20 21 22 23 24 25 26
000
FTUS42 KILM 272336
TAFCRE
TAF
KCRE 272336Z 2800/2824 03005KT P6SM SCT008 SCT040 OVC090
     FM280800 03006KT 4SM BR SCT005 BKN015
     FM281300 04009KT P6SM VCSH SCT025 BKN035
     FM281800 08009KT P6SM VCTS SCT030CB BKN050=

USA.gov is the U.S. government's official web portal to all federal, state and local government web resources and services.